sensor_id;sensor_type;location;lat;lon;timestamp;pressure;altitude;pressure_sealevel;temperature;humidity
73429;BME280;61643;49.564;17.412;2022-09-23T00:00:15;98798.84;;;4.41;89.62
73429;BME280;61643;49.564;17.412;2022-09-23T00:02:40;98802.06;;;4.23;90.78
73429;BME280;61643;49.564;17.412;2022-09-23T00:05:07;98794.47;;;4.27;90.72
73429;BME280;61643;49.564;17.412;2022-09-23T00:07:34;98797.38;;;4.32;90.59
73429;BME280;61643;49.564;17.412;2022-09-23T00:09:59;98785.47;;;4.28;91.12
73429;BME280;61643;49.564;17.412;2022-09-23T00:12:25;98790.00;;;4.34;90.11
73429;BME280;61643;49.564;17.412;2022-09-23T00:14:50;98786.06;;;4.23;89.83
73429;BME280;61643;49.564;17.412;2022-09-23T00:17:16;98778.72;;;4.25;89.80
73429;BME280;61643;49.564;17.412;2022-09-23T00:19:41;98787.28;;;4.14;91.03
73429;BME280;61643;49.564;17.412;2022-09-23T00:22:07;98785.28;;;4.23;91.06
73429;BME280;61643;49.564;17.412;2022-09-23T00:24:33;98783.22;;;4.25;91.00
73429;BME280;61643;49.564;17.412;2022-09-23T00:26:59;98778.06;;;4.23;91.18
73429;BME280;61643;49.564;17.412;2022-09-23T00:29:24;98773.56;;;4.24;90.78
73429;BME280;61643;49.564;17.412;2022-09-23T00:31:49;98778.06;;;4.23;90.07
73429;BME280;61643;49.564;17.412;2022-09-23T00:34:15;98773.56;;;4.11;90.73
73429;BME280;61643;49.564;17.412;2022-09-23T00:36:41;98773.38;;;4.12;90.62
73429;BME280;61643;49.564;17.412;2022-09-23T00:39:06;98768.41;;;4.09;91.44
73429;BME280;61643;49.564;17.412;2022-09-23T00:41:32;98772.75;;;4.10;90.58
73429;BME280;61643;49.564;17.412;2022-09-23T00:43:59;98765.56;;;4.04;89.90
73429;BME280;61643;49.564;17.412;2022-09-23T00:46:36;98776.56;;;3.94;90.73
73429;BME280;61643;49.564;17.412;2022-09-23T00:49:14;98769.19;;;3.83;90.50
73429;BME280;61643;49.564;17.412;2022-09-23T00:51:47;98764.72;;;3.90;91.27
73429;BME280;61643;49.564;17.412;2022-09-23T00:54:15;98759.41;;;3.97;90.72
73429;BME280;61643;49.564;17.412;2022-09-23T00:56:42;98766.38;;;4.05;91.62
73429;BME280;61643;49.564;17.412;2022-09-23T00:59:09;98765.16;;;4.07;92.84
73429;BME280;61643;49.564;17.412;2022-09-23T01:01:36;98763.50;;;4.13;91.35
73429;BME280;61643;49.564;17.412;2022-09-23T01:04:02;98766.63;;;4.23;93.31
73429;BME280;61643;49.564;17.412;2022-09-23T01:06:28;98768.88;;;4.32;93.21
73429;BME280;61643;49.564;17.412;2022-09-23T01:08:54;98766.22;;;4.45;92.44
73429;BME280;61643;49.564;17.412;2022-09-23T01:16:54;98759.69;;;4.55;92.46
73429;BME280;61643;49.564;17.412;2022-09-23T01:22:08;98756.59;;;4.44;92.28
73429;BME280;61643;49.564;17.412;2022-09-23T01:28:38;98747.97;;;4.29;92.48
73429;BME280;61643;49.564;17.412;2022-09-23T01:31:30;98752.06;;;4.32;92.17
73429;BME280;61643;49.564;17.412;2022-09-23T01:36:44;98744.69;;;4.27;92.23
73429;BME280;61643;49.564;17.412;2022-09-23T01:39:20;98752.47;;;4.29;91.96
73429;BME280;61643;49.564;17.412;2022-09-23T01:44:35;98739.16;;;4.29;91.54
73429;BME280;61643;49.564;17.412;2022-09-23T01:50:03;98737.09;;;4.31;91.65
73429;BME280;61643;49.564;17.412;2022-09-23T01:52:51;98740.19;;;4.28;92.08
73429;BME280;61643;49.564;17.412;2022-09-23T01:55:23;98737.94;;;4.25;92.40
73429;BME280;61643;49.564;17.412;2022-09-23T01:58:13;98743.47;;;4.30;92.35
73429;BME280;61643;49.564;17.412;2022-09-23T02:00:51;98734.06;;;4.34;92.47
73429;BME280;61643;49.564;17.412;2022-09-23T02:03:23;98740.63;;;4.44;91.73
73429;BME280;61643;49.564;17.412;2022-09-23T02:05:57;98736.50;;;4.42;92.81
73429;BME280;61643;49.564;17.412;2022-09-23T02:08:34;98735.69;;;4.55;91.64
73429;BME280;61643;49.564;17.412;2022-09-23T02:11:06;98734.88;;;4.54;90.42
73429;BME280;61643;49.564;17.412;2022-09-23T02:16:30;98739.16;;;4.29;93.14
73429;BME280;61643;49.564;17.412;2022-09-23T02:19:11;98736.50;;;4.29;92.56
73429;BME280;61643;49.564;17.412;2022-09-23T02:21:41;98719.88;;;4.27;92.50
73429;BME280;61643;49.564;17.412;2022-09-23T02:24:21;98721.94;;;4.31;92.43
73429;BME280;61643;49.564;17.412;2022-09-23T02:26:51;98727.91;;;4.33;91.95
73429;BME280;61643;49.564;17.412;2022-09-23T02:37:34;98717.44;;;4.12;92.78
73429;BME280;61643;49.564;17.412;2022-09-23T02:40:13;98712.72;;;4.21;91.54
73429;BME280;61643;49.564;17.412;2022-09-23T02:45:08;98714.56;;;4.20;91.88
73429;BME280;61643;49.564;17.412;2022-09-23T02:47:35;98715.97;;;3.96;91.58
73429;BME280;61643;49.564;17.412;2022-09-23T02:50:02;98711.22;;;3.79;92.71
73429;BME280;61643;49.564;17.412;2022-09-23T02:52:27;98713.25;;;3.77;92.05
73429;BME280;61643;49.564;17.412;2022-09-23T02:54:53;98708.16;;;3.82;92.20
73429;BME280;61643;49.564;17.412;2022-09-23T02:57:19;98707.56;;;3.93;92.01
73429;BME280;61643;49.564;17.412;2022-09-23T02:59:45;98714.97;;;4.04;91.50
73429;BME280;61643;49.564;17.412;2022-09-23T03:02:13;98717.41;;;3.99;90.56
73429;BME280;61643;49.564;17.412;2022-09-23T03:07:18;98711.81;;;3.81;91.41
73429;BME280;61643;49.564;17.412;2022-09-23T03:12:42;98714.66;;;3.66;92.38
73429;BME280;61643;49.564;17.412;2022-09-23T03:20:52;98710.22;;;3.93;92.91
73429;BME280;61643;49.564;17.412;2022-09-23T03:23:23;98705.09;;;3.91;92.09
73429;BME280;61643;49.564;17.412;2022-09-23T03:25:51;98716.78;;;3.97;92.00
73429;BME280;61643;49.564;17.412;2022-09-23T03:28:20;98719.06;;;4.07;91.39
73429;BME280;61643;49.564;17.412;2022-09-23T03:30:50;98708.63;;;4.05;91.00
73429;BME280;61643;49.564;17.412;2022-09-23T03:33:18;98706.72;;;3.86;91.44
73429;BME280;61643;49.564;17.412;2022-09-23T03:35:51;98713.47;;;3.75;91.78
73429;BME280;61643;49.564;17.412;2022-09-23T03:38:39;98708.97;;;3.76;91.42
73429;BME280;61643;49.564;17.412;2022-09-23T03:41:09;98715.91;;;3.77;91.82
73429;BME280;61643;49.564;17.412;2022-09-23T03:43:36;98711.81;;;3.74;90.94
73429;BME280;61643;49.564;17.412;2022-09-23T03:46:02;98712.00;;;3.66;91.71
73429;BME280;61643;49.564;17.412;2022-09-23T03:48:28;98712.63;;;3.62;90.84
73429;BME280;61643;49.564;17.412;2022-09-23T03:50:53;98708.50;;;3.59;91.30
73429;BME280;61643;49.564;17.412;2022-09-23T03:53:19;98699.47;;;3.47;91.37
73429;BME280;61643;49.564;17.412;2022-09-23T03:55:45;98705.63;;;3.54;91.23
73429;BME280;61643;49.564;17.412;2022-09-23T03:58:11;98692.13;;;3.62;91.15
73429;BME280;61643;49.564;17.412;2022-09-23T04:00:36;98714.81;;;3.58;91.00
73429;BME280;61643;49.564;17.412;2022-09-23T04:03:03;98707.91;;;3.64;90.57
73429;BME280;61643;49.564;17.412;2022-09-23T04:05:28;98708.91;;;3.63;90.68
73429;BME280;61643;49.564;17.412;2022-09-23T04:07:53;98711.72;;;3.48;89.56
73429;BME280;61643;49.564;17.412;2022-09-23T04:10:19;98708.06;;;3.49;89.65
73429;BME280;61643;49.564;17.412;2022-09-23T04:12:44;98716.69;;;3.58;89.92
73429;BME280;61643;49.564;17.412;2022-09-23T04:15:10;98720.13;;;3.45;89.89
73429;BME280;61643;49.564;17.412;2022-09-23T04:17:35;98715.00;;;3.43;90.39
73429;BME280;61643;49.564;17.412;2022-09-23T04:20:01;98713.56;;;3.47;90.12
73429;BME280;61643;49.564;17.412;2022-09-23T04:22:26;98706.34;;;3.28;89.80
73429;BME280;61643;49.564;17.412;2022-09-23T04:24:52;98711.44;;;3.30;90.49
73429;BME280;61643;49.564;17.412;2022-09-23T04:27:17;98718.66;;;2.95;91.74
73429;BME280;61643;49.564;17.412;2022-09-23T04:29:43;98724.41;;;3.05;91.14
73429;BME280;61643;49.564;17.412;2022-09-23T04:32:08;98716.69;;;2.76;91.89
73429;BME280;61643;49.564;17.412;2022-09-23T04:34:34;98716.38;;;2.92;91.67
73429;BME280;61643;49.564;17.412;2022-09-23T04:36:59;98710.84;;;2.93;91.18
73429;BME280;61643;49.564;17.412;2022-09-23T04:39:24;98718.78;;;2.87;91.01
73429;BME280;61643;49.564;17.412;2022-09-23T04:41:50;98723.91;;;2.82;91.17
73429;BME280;61643;49.564;17.412;2022-09-23T04:44:16;98719.44;;;2.61;91.34
73429;BME280;61643;49.564;17.412;2022-09-23T04:46:42;98718.72;;;2.74;91.40
73429;BME280;61643;49.564;17.412;2022-09-23T04:49:12;98722.78;;;2.70;92.70
73429;BME280;61643;49.564;17.412;2022-09-23T04:51:38;98717.53;;;2.83;91.50
73429;BME280;61643;49.564;17.412;2022-09-23T04:54:08;98722.81;;;2.76;91.16
73429;BME280;61643;49.564;17.412;2022-09-23T04:56:33;98719.81;;;2.58;90.94
73429;BME280;61643;49.564;17.412;2022-09-23T04:58:59;98717.94;;;2.80;92.67
73429;BME280;61643;49.564;17.412;2022-09-23T05:01:30;98722.81;;;2.76;93.17
73429;BME280;61643;49.564;17.412;2022-09-23T05:03:58;98719.34;;;2.76;92.98
73429;BME280;61643;49.564;17.412;2022-09-23T05:06:28;98716.38;;;2.92;93.50
73429;BME280;61643;49.564;17.412;2022-09-23T05:08:55;98717.47;;;3.04;92.48
73429;BME280;61643;49.564;17.412;2022-09-23T05:11:22;98717.53;;;3.17;92.13
73429;BME280;61643;49.564;17.412;2022-09-23T05:13:50;98723.50;;;3.26;91.17
73429;BME280;61643;49.564;17.412;2022-09-23T05:16:16;98719.81;;;3.20;90.94
73429;BME280;61643;49.564;17.412;2022-09-23T05:18:43;98728.44;;;2.94;93.39
73429;BME280;61643;49.564;17.412;2022-09-23T05:21:11;98739.41;;;3.13;92.15
73429;BME280;61643;49.564;17.412;2022-09-23T05:23:37;98731.28;;;3.27;91.92
73429;BME280;61643;49.564;17.412;2022-09-23T05:26:05;98732.53;;;3.31;90.63
73429;BME280;61643;49.564;17.412;2022-09-23T05:28:32;98735.22;;;2.97;92.60
73429;BME280;61643;49.564;17.412;2022-09-23T05:31:18;98730.13;;;3.02;93.38
73429;BME280;61643;49.564;17.412;2022-09-23T05:33:49;98750.72;;;3.21;93.00
73429;BME280;61643;49.564;17.412;2022-09-23T05:36:18;98747.50;;;3.32;92.93
73429;BME280;61643;49.564;17.412;2022-09-23T05:38:45;98744.59;;;3.27;92.54
73429;BME280;61643;49.564;17.412;2022-09-23T05:41:12;98746.44;;;3.33;93.81
73429;BME280;61643;49.564;17.412;2022-09-23T05:43:38;98751.06;;;3.59;92.86
73429;BME280;61643;49.564;17.412;2022-09-23T05:46:06;98743.94;;;3.73;92.87
73429;BME280;61643;49.564;17.412;2022-09-23T05:48:32;98749.94;;;3.88;91.15
73429;BME280;61643;49.564;17.412;2022-09-23T05:50:58;98747.13;;;4.09;90.64
73429;BME280;61643;49.564;17.412;2022-09-23T05:53:25;98745.69;;;4.07;92.49
73429;BME280;61643;49.564;17.412;2022-09-23T05:55:50;98742.84;;;4.21;91.89
73429;BME280;61643;49.564;17.412;2022-09-23T05:58:16;98746.16;;;4.36;90.53
73429;BME280;61643;49.564;17.412;2022-09-23T06:00:42;98742.03;;;4.40;91.18
73429;BME280;61643;49.564;17.412;2022-09-23T06:03:14;98739.78;;;4.57;91.85
73429;BME280;61643;49.564;17.412;2022-09-23T06:05:40;98747.16;;;4.88;90.55
73429;BME280;61643;49.564;17.412;2022-09-23T06:08:07;98752.47;;;5.01;89.54
73429;BME280;61643;49.564;17.412;2022-09-23T06:10:40;98752.44;;;5.08;90.20
73429;BME280;61643;49.564;17.412;2022-09-23T06:13:05;98749.13;;;5.25;89.69
73429;BME280;61643;49.564;17.412;2022-09-23T06:15:31;98752.00;;;5.30;88.93
73429;BME280;61643;49.564;17.412;2022-09-23T06:17:57;98744.16;;;5.42;89.74
73429;BME280;61643;49.564;17.412;2022-09-23T06:20:23;98744.31;;;5.47;88.58
73429;BME280;61643;49.564;17.412;2022-09-23T06:22:48;98747.16;;;5.59;89.03
73429;BME280;61643;49.564;17.412;2022-09-23T06:25:14;98752.81;;;5.75;89.47
73429;BME280;61643;49.564;17.412;2022-09-23T06:27:39;98747.06;;;5.85;89.06
73429;BME280;61643;49.564;17.412;2022-09-23T06:30:05;98750.50;;;5.99;89.64
73429;BME280;61643;49.564;17.412;2022-09-23T06:32:31;98758.59;;;6.17;89.12
73429;BME280;61643;49.564;17.412;2022-09-23T06:34:56;98755.63;;;6.31;88.37
73429;BME280;61643;49.564;17.412;2022-09-23T06:37:22;98752.28;;;6.42;88.61
73429;BME280;61643;49.564;17.412;2022-09-23T06:39:48;98749.47;;;6.56;88.90
73429;BME280;61643;49.564;17.412;2022-09-23T06:42:13;98751.00;;;6.70;91.15
73429;BME280;61643;49.564;17.412;2022-09-23T06:44:41;98745.34;;;6.84;89.77
73429;BME280;61643;49.564;17.412;2022-09-23T06:47:06;98749.38;;;6.93;91.22
73429;BME280;61643;49.564;17.412;2022-09-23T06:49:31;98750.00;;;7.14;93.07
73429;BME280;61643;49.564;17.412;2022-09-23T06:51:58;98743.91;;;7.25;91.10
73429;BME280;61643;49.564;17.412;2022-09-23T06:54:23;98751.41;;;7.34;90.24
73429;BME280;61643;49.564;17.412;2022-09-23T06:56:52;98755.25;;;7.45;89.96
73429;BME280;61643;49.564;17.412;2022-09-23T06:59:18;98755.53;;;7.55;90.29
73429;BME280;61643;49.564;17.412;2022-09-23T07:01:44;98756.84;;;7.64;90.35
73429;BME280;61643;49.564;17.412;2022-09-23T07:04:11;98757.94;;;7.75;90.33
73429;BME280;61643;49.564;17.412;2022-09-23T07:06:37;98758.69;;;7.82;90.43
73429;BME280;61643;49.564;17.412;2022-09-23T07:09:04;98757.81;;;7.88;88.79
73429;BME280;61643;49.564;17.412;2022-09-23T07:11:29;98749.53;;;7.89;88.64
73429;BME280;61643;49.564;17.412;2022-09-23T07:13:55;98755.25;;;7.93;87.95
73429;BME280;61643;49.564;17.412;2022-09-23T07:16:20;98749.44;;;7.96;86.85
73429;BME280;61643;49.564;17.412;2022-09-23T07:18:46;98752.84;;;8.03;87.04
73429;BME280;61643;49.564;17.412;2022-09-23T07:21:16;98751.94;;;8.09;86.27
73429;BME280;61643;49.564;17.412;2022-09-23T07:23:42;98745.31;;;8.12;86.73
73429;BME280;61643;49.564;17.412;2022-09-23T07:26:08;98755.25;;;8.23;86.52
73429;BME280;61643;49.564;17.412;2022-09-23T07:28:34;98753.53;;;8.28;86.52
73429;BME280;61643;49.564;17.412;2022-09-23T07:31:02;98755.19;;;8.29;86.66
73429;BME280;61643;49.564;17.412;2022-09-23T07:33:28;98753.09;;;8.31;86.54
73429;BME280;61643;49.564;17.412;2022-09-23T07:35:55;98756.50;;;8.38;86.29
73429;BME280;61643;49.564;17.412;2022-09-23T07:38:21;98761.63;;;8.40;85.32
73429;BME280;61643;49.564;17.412;2022-09-23T07:40:50;98760.94;;;8.45;84.66
73429;BME280;61643;49.564;17.412;2022-09-23T07:43:15;98762.94;;;8.49;85.67
73429;BME280;61643;49.564;17.412;2022-09-23T07:45:43;98766.81;;;8.53;85.09
73429;BME280;61643;49.564;17.412;2022-09-23T07:48:09;98765.88;;;8.59;84.67
73429;BME280;61643;49.564;17.412;2022-09-23T07:50:37;98770.78;;;8.62;84.05
73429;BME280;61643;49.564;17.412;2022-09-23T07:53:03;98758.41;;;8.61;82.10
73429;BME280;61643;49.564;17.412;2022-09-23T07:55:29;98758.31;;;8.68;85.64
73429;BME280;61643;49.564;17.412;2022-09-23T07:57:55;98761.34;;;8.71;84.39
73429;BME280;61643;49.564;17.412;2022-09-23T08:00:20;98760.63;;;8.76;84.14
73429;BME280;61643;49.564;17.412;2022-09-23T08:02:46;98767.88;;;8.87;84.98
73429;BME280;61643;49.564;17.412;2022-09-23T08:05:11;98771.41;;;8.99;84.33
73429;BME280;61643;49.564;17.412;2022-09-23T08:07:38;98774.56;;;9.08;83.52
73429;BME280;61643;49.564;17.412;2022-09-23T08:10:03;98763.84;;;9.08;82.87
73429;BME280;61643;49.564;17.412;2022-09-23T08:12:32;98768.50;;;9.12;83.29
73429;BME280;61643;49.564;17.412;2022-09-23T08:14:57;98759.50;;;9.18;81.68
73429;BME280;61643;49.564;17.412;2022-09-23T08:17:24;98759.88;;;9.22;81.43
73429;BME280;61643;49.564;17.412;2022-09-23T08:19:50;98765.59;;;9.25;82.70
73429;BME280;61643;49.564;17.412;2022-09-23T08:22:15;98762.06;;;9.25;81.93
73429;BME280;61643;49.564;17.412;2022-09-23T08:24:41;98759.25;;;9.31;82.40
73429;BME280;61643;49.564;17.412;2022-09-23T08:27:07;98756.09;;;9.34;82.45
73429;BME280;61643;49.564;17.412;2022-09-23T08:29:32;98760.53;;;9.40;82.67
73429;BME280;61643;49.564;17.412;2022-09-23T08:31:58;98754.22;;;9.47;83.69
73429;BME280;61643;49.564;17.412;2022-09-23T08:34:26;98753.19;;;9.36;81.77
73429;BME280;61643;49.564;17.412;2022-09-23T08:36:51;98756.22;;;9.39;83.09
73429;BME280;61643;49.564;17.412;2022-09-23T08:39:18;98755.75;;;9.43;83.38
73429;BME280;61643;49.564;17.412;2022-09-23T08:42:16;98755.38;;;9.51;82.57
73429;BME280;61643;49.564;17.412;2022-09-23T08:52:31;98745.34;;;9.86;84.08
73429;BME280;61643;49.564;17.412;2022-09-23T08:54:58;98734.34;;;9.87;82.41
73429;BME280;61643;49.564;17.412;2022-09-23T08:57:48;98741.34;;;10.00;82.50
73429;BME280;61643;49.564;17.412;2022-09-23T09:00:21;98734.56;;;9.98;82.40
73429;BME280;61643;49.564;17.412;2022-09-23T09:02:48;98733.25;;;10.00;80.89
73429;BME280;61643;49.564;17.412;2022-09-23T09:05:20;98727.16;;;10.05;81.65
73429;BME280;61643;49.564;17.412;2022-09-23T09:07:47;98738.81;;;10.10;81.84
73429;BME280;61643;49.564;17.412;2022-09-23T09:10:17;98730.97;;;10.20;82.55
73429;BME280;61643;49.564;17.412;2022-09-23T09:18:07;98714.72;;;10.44;81.32
73429;BME280;61643;49.564;17.412;2022-09-23T09:20:59;98728.44;;;10.59;81.83
73429;BME280;61643;49.564;17.412;2022-09-23T09:23:53;98724.03;;;10.69;80.88
73429;BME280;61643;49.564;17.412;2022-09-23T09:26:31;98719.78;;;10.73;81.33
73429;BME280;61643;49.564;17.412;2022-09-23T09:29:01;98718.25;;;10.77;81.71
73429;BME280;61643;49.564;17.412;2022-09-23T09:31:40;98715.94;;;10.86;81.63
73429;BME280;61643;49.564;17.412;2022-09-23T09:34:28;98710.13;;;10.94;79.97
73429;BME280;61643;49.564;17.412;2022-09-23T09:37:14;98706.22;;;11.02;80.41
73429;BME280;61643;49.564;17.412;2022-09-23T09:39:42;98700.00;;;11.01;80.10
73429;BME280;61643;49.564;17.412;2022-09-23T09:42:16;98694.69;;;11.06;79.20
73429;BME280;61643;49.564;17.412;2022-09-23T09:44:56;98693.47;;;11.14;80.08
73429;BME280;61643;49.564;17.412;2022-09-23T09:47:50;98692.28;;;11.26;78.04
73429;BME280;61643;49.564;17.412;2022-09-23T09:50:43;98685.88;;;11.32;76.63
73429;BME280;61643;49.564;17.412;2022-09-23T09:53:14;98681.63;;;11.36;76.39
73429;BME280;61643;49.564;17.412;2022-09-23T09:55:40;98681.69;;;11.42;76.26
73429;BME280;61643;49.564;17.412;2022-09-23T09:58:06;98680.69;;;11.48;72.27
73429;BME280;61643;49.564;17.412;2022-09-23T10:00:50;98683.19;;;11.54;74.35
73429;BME280;61643;49.564;17.412;2022-09-23T10:08:34;98668.09;;;11.75;73.42
73429;BME280;61643;49.564;17.412;2022-09-23T10:13:26;98664.94;;;11.83;73.34
73429;BME280;61643;49.564;17.412;2022-09-23T10:15:58;98669.03;;;11.86;73.39
73429;BME280;61643;49.564;17.412;2022-09-23T10:18:35;98668.81;;;11.92;72.26
73429;BME280;61643;49.564;17.412;2022-09-23T10:21:10;98663.78;;;12.01;72.55
73429;BME280;61643;49.564;17.412;2022-09-23T10:23:41;98663.31;;;12.09;72.83
73429;BME280;61643;49.564;17.412;2022-09-23T10:26:07;98664.75;;;12.16;72.98
73429;BME280;61643;49.564;17.412;2022-09-23T10:31:06;98659.88;;;12.45;71.48
73429;BME280;61643;49.564;17.412;2022-09-23T10:33:32;98656.88;;;12.42;68.35
73429;BME280;61643;49.564;17.412;2022-09-23T10:35:57;98661.44;;;12.41;71.44
73429;BME280;61643;49.564;17.412;2022-09-23T10:38:23;98656.28;;;12.34;68.66
73429;BME280;61643;49.564;17.412;2022-09-23T10:40:49;98656.84;;;12.37;71.82
73429;BME280;61643;49.564;17.412;2022-09-23T10:44:16;98657.72;;;12.47;70.90
73429;BME280;61643;49.564;17.412;2022-09-23T10:52:29;98661.94;;;12.70;65.76
73429;BME280;61643;49.564;17.412;2022-09-23T10:55:19;98658.00;;;12.82;69.03
73429;BME280;61643;49.564;17.412;2022-09-23T10:58:22;98660.31;;;13.06;67.94
73429;BME280;61643;49.564;17.412;2022-09-23T11:00:46;98647.16;;;13.19;67.10
73429;BME280;61643;49.564;17.412;2022-09-23T11:04:35;98643.44;;;13.30;64.33
73429;BME280;61643;49.564;17.412;2022-09-23T11:26:24;98616.75;;;12.97;62.97
73429;BME280;61643;49.564;17.412;2022-09-23T11:37:06;98620.66;;;13.16;62.86
73429;BME280;61643;49.564;17.412;2022-09-23T11:39:43;98615.75;;;13.13;60.76
73429;BME280;61643;49.564;17.412;2022-09-23T11:42:28;98609.97;;;12.95;56.16
73429;BME280;61643;49.564;17.412;2022-09-23T11:45:01;98602.69;;;13.00;60.00
73429;BME280;61643;49.564;17.412;2022-09-23T11:47:35;98614.91;;;13.08;61.60
73429;BME280;61643;49.564;17.412;2022-09-23T11:53:06;98606.63;;;13.24;60.75
73429;BME280;61643;49.564;17.412;2022-09-23T11:55:40;98603.94;;;13.29;60.90
73429;BME280;61643;49.564;17.412;2022-09-23T11:58:15;98590.72;;;13.33;60.47
73429;BME280;61643;49.564;17.412;2022-09-23T12:00:52;98592.88;;;13.36;61.20
73429;BME280;61643;49.564;17.412;2022-09-23T12:06:14;98585.69;;;13.67;59.85
73429;BME280;61643;49.564;17.412;2022-09-23T12:08:42;98591.09;;;13.77;58.70
73429;BME280;61643;49.564;17.412;2022-09-23T12:11:23;98583.25;;;13.80;58.11
73429;BME280;61643;49.564;17.412;2022-09-23T12:14:14;98581.91;;;13.78;54.12
73429;BME280;61643;49.564;17.412;2022-09-23T12:24:53;98567.84;;;13.86;57.35
73429;BME280;61643;49.564;17.412;2022-09-23T12:27:38;98562.44;;;13.86;57.40
73429;BME280;61643;49.564;17.412;2022-09-23T12:32:41;98560.81;;;14.00;56.23
73429;BME280;61643;49.564;17.412;2022-09-23T12:35:20;98562.97;;;14.08;53.69
73429;BME280;61643;49.564;17.412;2022-09-23T12:37:47;98553.25;;;14.12;55.50
73429;BME280;61643;49.564;17.412;2022-09-23T12:40:18;98555.69;;;14.14;55.95
73429;BME280;61643;49.564;17.412;2022-09-23T12:42:46;98548.94;;;14.06;55.44
73429;BME280;61643;49.564;17.412;2022-09-23T12:48:01;98539.97;;;14.16;53.02
73429;BME280;61643;49.564;17.412;2022-09-23T12:55:58;98541.91;;;14.36;50.08
73429;BME280;61643;49.564;17.412;2022-09-23T12:59:51;98534.25;;;14.32;49.96
73429;BME280;61643;49.564;17.412;2022-09-23T13:01:45;98537.53;;;14.45;50.06
73429;BME280;61643;49.564;17.412;2022-09-23T13:07:15;98524.03;;;14.35;49.59
73429;BME280;61643;49.564;17.412;2022-09-23T13:09:45;98529.13;;;14.31;49.60
73429;BME280;61643;49.564;17.412;2022-09-23T13:12:30;98515.88;;;14.19;48.16
73429;BME280;61643;49.564;17.412;2022-09-23T13:14:59;98511.81;;;14.27;52.27
73429;BME280;61643;49.564;17.412;2022-09-23T13:17:38;98508.03;;;14.38;52.18
73429;BME280;61643;49.564;17.412;2022-09-23T13:20:36;98505.88;;;14.35;50.92
73429;BME280;61643;49.564;17.412;2022-09-23T13:25:38;98497.47;;;14.16;49.70
73429;BME280;61643;49.564;17.412;2022-09-23T13:28:32;98494.25;;;14.09;50.92
73429;BME280;61643;49.564;17.412;2022-09-23T13:31:02;98499.94;;;14.18;52.09
73429;BME280;61643;49.564;17.412;2022-09-23T13:33:42;98492.34;;;14.25;51.25
73429;BME280;61643;49.564;17.412;2022-09-23T13:36:17;98498.00;;;14.23;52.55
73429;BME280;61643;49.564;17.412;2022-09-23T13:38:43;98489.34;;;14.26;48.43
73429;BME280;61643;49.564;17.412;2022-09-23T13:41:12;98486.09;;;14.19;47.10
73429;BME280;61643;49.564;17.412;2022-09-23T13:43:50;98482.34;;;13.95;44.68
73429;BME280;61643;49.564;17.412;2022-09-23T13:46:19;98482.09;;;13.82;48.56
73429;BME280;61643;49.564;17.412;2022-09-23T13:48:47;98482.88;;;13.72;49.25
73429;BME280;61643;49.564;17.412;2022-09-23T13:51:26;98468.84;;;13.70;50.45
73429;BME280;61643;49.564;17.412;2022-09-23T13:53:56;98476.38;;;13.68;51.78
73429;BME280;61643;49.564;17.412;2022-09-23T13:56:23;98477.19;;;13.68;50.55
73429;BME280;61643;49.564;17.412;2022-09-23T13:58:49;98478.28;;;13.72;50.95
73429;BME280;61643;49.564;17.412;2022-09-23T14:01:21;98471.50;;;13.75;51.53
73429;BME280;61643;49.564;17.412;2022-09-23T14:03:54;98477.75;;;13.70;50.48
73429;BME280;61643;49.564;17.412;2022-09-23T14:06:19;98475.06;;;13.70;50.65
73429;BME280;61643;49.564;17.412;2022-09-23T14:08:47;98465.03;;;13.61;53.55
73429;BME280;61643;49.564;17.412;2022-09-23T14:11:18;98460.97;;;13.58;50.48
73429;BME280;61643;49.564;17.412;2022-09-23T14:13:46;98470.19;;;13.52;51.62
73429;BME280;61643;49.564;17.412;2022-09-23T14:16:13;98462.06;;;13.52;51.01
73429;BME280;61643;49.564;17.412;2022-09-23T14:18:43;98469.06;;;13.53;52.40
73429;BME280;61643;49.564;17.412;2022-09-23T14:23:53;98453.66;;;13.44;52.82
73429;BME280;61643;49.564;17.412;2022-09-23T14:26:19;98454.22;;;13.51;51.68
73429;BME280;61643;49.564;17.412;2022-09-23T14:28:46;98448.53;;;13.57;52.02
73429;BME280;61643;49.564;17.412;2022-09-23T14:31:12;98445.56;;;13.54;52.84
73429;BME280;61643;49.564;17.412;2022-09-23T14:33:40;98443.13;;;13.52;53.31
73429;BME280;61643;49.564;17.412;2022-09-23T14:36:11;98439.63;;;13.42;54.39
73429;BME280;61643;49.564;17.412;2022-09-23T14:39:06;98435.81;;;13.32;53.15
73429;BME280;61643;49.564;17.412;2022-09-23T14:41:43;98442.03;;;13.33;52.15
73429;BME280;61643;49.564;17.412;2022-09-23T14:44:23;98442.03;;;13.38;51.70
73429;BME280;61643;49.564;17.412;2022-09-23T14:46:57;98435.25;;;13.36;49.11
73429;BME280;61643;49.564;17.412;2022-09-23T14:49:23;98435.81;;;13.32;51.75
73429;BME280;61643;49.564;17.412;2022-09-23T14:51:54;98433.91;;;13.33;51.98
73429;BME280;61643;49.564;17.412;2022-09-23T14:56:50;98425.28;;;13.31;52.09
73429;BME280;61643;49.564;17.412;2022-09-23T14:59:47;98428.78;;;13.31;50.36
73429;BME280;61643;49.564;17.412;2022-09-23T15:02:31;98419.59;;;13.32;50.28
73429;BME280;61643;49.564;17.412;2022-09-23T15:07:56;98419.56;;;13.17;50.79
73429;BME280;61643;49.564;17.412;2022-09-23T15:10:30;98412.28;;;13.13;50.61
73429;BME280;61643;49.564;17.412;2022-09-23T15:13:18;98415.75;;;13.08;51.67
73429;BME280;61643;49.564;17.412;2022-09-23T15:15:45;98413.81;;;12.99;52.71
73429;BME280;61643;49.564;17.412;2022-09-23T15:18:29;98410.31;;;12.93;52.92
73429;BME280;61643;49.564;17.412;2022-09-23T15:23:43;98412.97;;;12.88;51.97
73429;BME280;61643;49.564;17.412;2022-09-23T15:26:19;98409.22;;;12.84;52.60
73429;BME280;61643;49.564;17.412;2022-09-23T15:28:45;98407.31;;;12.79;52.86
73429;BME280;61643;49.564;17.412;2022-09-23T15:33:37;98403.25;;;12.72;52.75
73429;BME280;61643;49.564;17.412;2022-09-23T15:36:03;98395.66;;;12.69;53.56
73429;BME280;61643;49.564;17.412;2022-09-23T15:38:28;98401.03;;;12.64;54.21